sensor_id;sensor_type;location;lat;lon;timestamp;temperature;humidity
22112;DHT22;11222;50.872;4.312;2022-07-23T00:02:06;17.90;99.90
22112;DHT22;11222;50.872;4.312;2022-07-23T00:04:33;17.90;99.90
22112;DHT22;11222;50.872;4.312;2022-07-23T00:06:58;17.90;99.90
22112;DHT22;11222;50.872;4.312;2022-07-23T00:09:24;17.80;99.90
22112;DHT22;11222;50.872;4.312;2022-07-23T00:11:50;17.70;99.90
22112;DHT22;11222;50.872;4.312;2022-07-23T00:14:16;17.70;99.90
22112;DHT22;11222;50.872;4.312;2022-07-23T00:16:41;17.70;99.90
22112;DHT22;11222;50.872;4.312;2022-07-23T00:19:07;17.70;99.90
22112;DHT22;11222;50.872;4.312;2022-07-23T00:21:33;17.70;99.90
22112;DHT22;11222;50.872;4.312;2022-07-23T00:24:00;17.60;99.90
22112;DHT22;11222;50.872;4.312;2022-07-23T00:26:27;17.60;99.90
22112;DHT22;11222;50.872;4.312;2022-07-23T00:28:53;17.70;99.90
22112;DHT22;11222;50.872;4.312;2022-07-23T00:31:19;17.60;99.90
22112;DHT22;11222;50.872;4.312;2022-07-23T00:33:44;17.60;99.90
22112;DHT22;11222;50.872;4.312;2022-07-23T00:36:10;17.50;99.90
22112;DHT22;11222;50.872;4.312;2022-07-23T00:38:36;17.60;99.90
22112;DHT22;11222;50.872;4.312;2022-07-23T00:41:01;17.70;99.90
22112;DHT22;11222;50.872;4.312;2022-07-23T00:43:27;17.70;99.90
22112;DHT22;11222;50.872;4.312;2022-07-23T00:45:53;17.60;99.90
22112;DHT22;11222;50.872;4.312;2022-07-23T00:48:18;17.60;99.90
22112;DHT22;11222;50.872;4.312;2022-07-23T00:50:44;17.60;99.90
22112;DHT22;11222;50.872;4.312;2022-07-23T00:53:10;17.70;99.90
22112;DHT22;11222;50.872;4.312;2022-07-23T00:55:37;17.70;99.90
22112;DHT22;11222;50.872;4.312;2022-07-23T00:58:03;17.80;99.90
22112;DHT22;11222;50.872;4.312;2022-07-23T01:00:29;17.70;99.90
22112;DHT22;11222;50.872;4.312;2022-07-23T01:02:55;17.60;99.90
22112;DHT22;11222;50.872;4.312;2022-07-23T01:05:21;17.60;99.90
22112;DHT22;11222;50.872;4.312;2022-07-23T01:07:51;17.60;99.90
22112;DHT22;11222;50.872;4.312;2022-07-23T01:10:17;17.70;99.90
22112;DHT22;11222;50.872;4.312;2022-07-23T01:13:07;17.60;99.90
22112;DHT22;11222;50.872;4.312;2022-07-23T01:15:34;17.50;99.90
22112;DHT22;11222;50.872;4.312;2022-07-23T01:18:00;17.30;99.90
22112;DHT22;11222;50.872;4.312;2022-07-23T01:20:26;17.30;99.90
22112;DHT22;11222;50.872;4.312;2022-07-23T01:22:53;17.20;99.90
22112;DHT22;11222;50.872;4.312;2022-07-23T01:25:19;17.10;99.90
22112;DHT22;11222;50.872;4.312;2022-07-23T01:27:45;17.10;99.90
22112;DHT22;11222;50.872;4.312;2022-07-23T01:30:11;16.90;99.90
22112;DHT22;11222;50.872;4.312;2022-07-23T01:32:37;16.80;99.90
22112;DHT22;11222;50.872;4.312;2022-07-23T01:35:04;16.80;99.90
22112;DHT22;11222;50.872;4.312;2022-07-23T01:37:31;16.90;99.90
22112;DHT22;11222;50.872;4.312;2022-07-23T01:39:57;16.90;99.90
22112;DHT22;11222;50.872;4.312;2022-07-23T01:42:22;16.90;99.90
22112;DHT22;11222;50.872;4.312;2022-07-23T01:44:49;16.90;99.90
22112;DHT22;11222;50.872;4.312;2022-07-23T01:47:15;16.90;99.90
22112;DHT22;11222;50.872;4.312;2022-07-23T01:49:40;17.00;99.90
22112;DHT22;11222;50.872;4.312;2022-07-23T01:52:06;17.00;99.90
22112;DHT22;11222;50.872;4.312;2022-07-23T01:54:36;17.10;99.90
22112;DHT22;11222;50.872;4.312;2022-07-23T01:57:02;17.20;99.90
22112;DHT22;11222;50.872;4.312;2022-07-23T01:59:28;17.10;99.90
22112;DHT22;11222;50.872;4.312;2022-07-23T02:01:54;17.20;99.90
22112;DHT22;11222;50.872;4.312;2022-07-23T02:04:21;17.10;99.90
22112;DHT22;11222;50.872;4.312;2022-07-23T02:06:47;17.10;99.90
22112;DHT22;11222;50.872;4.312;2022-07-23T02:09:14;17.20;99.90
22112;DHT22;11222;50.872;4.312;2022-07-23T02:11:39;17.30;99.90
22112;DHT22;11222;50.872;4.312;2022-07-23T02:14:05;17.30;99.90
22112;DHT22;11222;50.872;4.312;2022-07-23T02:16:31;17.30;99.90
22112;DHT22;11222;50.872;4.312;2022-07-23T02:18:57;17.30;99.90
22112;DHT22;11222;50.872;4.312;2022-07-23T02:21:22;17.10;99.90
22112;DHT22;11222;50.872;4.312;2022-07-23T02:23:48;16.90;99.90
22112;DHT22;11222;50.872;4.312;2022-07-23T02:26:14;16.90;99.90
22112;DHT22;11222;50.872;4.312;2022-07-23T02:28:40;16.90;99.90
22112;DHT22;11222;50.872;4.312;2022-07-23T02:31:05;16.90;99.90
22112;DHT22;11222;50.872;4.312;2022-07-23T02:33:32;16.90;99.90
22112;DHT22;11222;50.872;4.312;2022-07-23T02:35:59;16.90;99.90
22112;DHT22;11222;50.872;4.312;2022-07-23T02:38:24;17.00;99.90
22112;DHT22;11222;50.872;4.312;2022-07-23T02:40:50;17.00;99.90
22112;DHT22;11222;50.872;4.312;2022-07-23T02:43:16;17.00;99.90
22112;DHT22;11222;50.872;4.312;2022-07-23T02:45:42;17.00;99.90
22112;DHT22;11222;50.872;4.312;2022-07-23T02:48:07;17.00;99.90
22112;DHT22;11222;50.872;4.312;2022-07-23T02:50:33;17.10;99.90
22112;DHT22;11222;50.872;4.312;2022-07-23T02:52:59;17.10;99.90
22112;DHT22;11222;50.872;4.312;2022-07-23T02:55:24;16.90;99.90
22112;DHT22;11222;50.872;4.312;2022-07-23T02:57:50;17.00;99.90
22112;DHT22;11222;50.872;4.312;2022-07-23T03:00:16;17.10;99.90
22112;DHT22;11222;50.872;4.312;2022-07-23T03:02:41;17.20;99.90
22112;DHT22;11222;50.872;4.312;2022-07-23T03:05:08;17.30;99.90
22112;DHT22;11222;50.872;4.312;2022-07-23T03:07:34;17.40;99.90
22112;DHT22;11222;50.872;4.312;2022-07-23T03:09:59;17.20;99.90
22112;DHT22;11222;50.872;4.312;2022-07-23T03:12:25;17.00;99.90
22112;DHT22;11222;50.872;4.312;2022-07-23T03:14:51;16.80;99.90
22112;DHT22;11222;50.872;4.312;2022-07-23T03:17:17;16.90;99.90
22112;DHT22;11222;50.872;4.312;2022-07-23T03:19:42;17.00;99.90
22112;DHT22;11222;50.872;4.312;2022-07-23T03:22:08;16.90;99.90
22112;DHT22;11222;50.872;4.312;2022-07-23T03:24:34;16.80;99.90
22112;DHT22;11222;50.872;4.312;2022-07-23T03:27:18;16.90;99.90
22112;DHT22;11222;50.872;4.312;2022-07-23T03:29:44;16.70;99.90
22112;DHT22;11222;50.872;4.312;2022-07-23T03:32:10;16.60;99.90
22112;DHT22;11222;50.872;4.312;2022-07-23T03:34:36;16.60;99.90
22112;DHT22;11222;50.872;4.312;2022-07-23T03:37:02;16.80;99.90
22112;DHT22;11222;50.872;4.312;2022-07-23T03:39:27;16.90;99.90
22112;DHT22;11222;50.872;4.312;2022-07-23T03:41:53;17.00;99.90
22112;DHT22;11222;50.872;4.312;2022-07-23T03:44:19;16.90;99.90
22112;DHT22;11222;50.872;4.312;2022-07-23T03:46:44;16.90;99.90
22112;DHT22;11222;50.872;4.312;2022-07-23T03:49:10;16.90;99.90
22112;DHT22;11222;50.872;4.312;2022-07-23T03:51:36;16.90;99.90
22112;DHT22;11222;50.872;4.312;2022-07-23T03:54:01;16.90;99.90
22112;DHT22;11222;50.872;4.312;2022-07-23T03:56:27;16.90;99.90
22112;DHT22;11222;50.872;4.312;2022-07-23T03:58:53;16.90;99.90
22112;DHT22;11222;50.872;4.312;2022-07-23T04:01:19;16.90;99.90
22112;DHT22;11222;50.872;4.312;2022-07-23T04:03:44;16.80;99.90
22112;DHT22;11222;50.872;4.312;2022-07-23T04:06:12;16.80;99.90
22112;DHT22;11222;50.872;4.312;2022-07-23T04:08:38;16.80;99.90
22112;DHT22;11222;50.872;4.312;2022-07-23T04:11:04;16.80;99.90
22112;DHT22;11222;50.872;4.312;2022-07-23T04:13:30;16.80;99.90
22112;DHT22;11222;50.872;4.312;2022-07-23T04:15:55;16.80;99.90
22112;DHT22;11222;50.872;4.312;2022-07-23T04:18:21;16.80;99.90
22112;DHT22;11222;50.872;4.312;2022-07-23T04:20:50;16.90;99.90
22112;DHT22;11222;50.872;4.312;2022-07-23T04:23:16;17.00;99.90
22112;DHT22;11222;50.872;4.312;2022-07-23T04:25:42;17.10;99.90
22112;DHT22;11222;50.872;4.312;2022-07-23T04:28:08;17.00;99.90
22112;DHT22;11222;50.872;4.312;2022-07-23T04:30:34;17.10;99.90
22112;DHT22;11222;50.872;4.312;2022-07-23T04:32:59;17.30;99.90
22112;DHT22;11222;50.872;4.312;2022-07-23T04:35:25;17.40;99.90
22112;DHT22;11222;50.872;4.312;2022-07-23T04:37:51;17.60;99.90
22112;DHT22;11222;50.872;4.312;2022-07-23T04:40:17;17.80;99.90
22112;DHT22;11222;50.872;4.312;2022-07-23T04:42:43;17.90;99.90
22112;DHT22;11222;50.872;4.312;2022-07-23T04:45:09;18.10;99.90
22112;DHT22;11222;50.872;4.312;2022-07-23T04:47:35;18.30;99.90
22112;DHT22;11222;50.872;4.312;2022-07-23T04:50:00;18.60;99.90
22112;DHT22;11222;50.872;4.312;2022-07-23T04:52:26;18.80;99.90
22112;DHT22;11222;50.872;4.312;2022-07-23T04:54:52;18.80;99.90
22112;DHT22;11222;50.872;4.312;2022-07-23T04:57:17;18.70;99.90
22112;DHT22;11222;50.872;4.312;2022-07-23T04:59:43;18.50;99.90
22112;DHT22;11222;50.872;4.312;2022-07-23T05:02:09;18.40;99.90
22112;DHT22;11222;50.872;4.312;2022-07-23T05:04:34;18.30;99.90
22112;DHT22;11222;50.872;4.312;2022-07-23T05:07:00;18.30;99.90
22112;DHT22;11222;50.872;4.312;2022-07-23T05:09:26;18.30;99.90
22112;DHT22;11222;50.872;4.312;2022-07-23T05:11:51;18.30;99.90
22112;DHT22;11222;50.872;4.312;2022-07-23T05:14:17;18.30;99.90
22112;DHT22;11222;50.872;4.312;2022-07-23T05:16:43;18.30;99.90
22112;DHT22;11222;50.872;4.312;2022-07-23T05:19:08;18.40;99.90
22112;DHT22;11222;50.872;4.312;2022-07-23T05:21:34;18.40;99.90
22112;DHT22;11222;50.872;4.312;2022-07-23T05:24:00;18.20;99.90
22112;DHT22;11222;50.872;4.312;2022-07-23T05:26:26;18.10;99.90
22112;DHT22;11222;50.872;4.312;2022-07-23T05:28:51;18.00;99.90
22112;DHT22;11222;50.872;4.312;2022-07-23T05:31:17;17.90;99.90
22112;DHT22;11222;50.872;4.312;2022-07-23T05:33:43;17.90;99.90
22112;DHT22;11222;50.872;4.312;2022-07-23T05:36:09;17.80;99.90
22112;DHT22;11222;50.872;4.312;2022-07-23T05:38:35;17.60;99.90
22112;DHT22;11222;50.872;4.312;2022-07-23T05:41:01;17.40;99.90
22112;DHT22;11222;50.872;4.312;2022-07-23T05:43:27;17.50;99.90
22112;DHT22;11222;50.872;4.312;2022-07-23T05:45:53;17.70;99.90
22112;DHT22;11222;50.872;4.312;2022-07-23T05:48:19;17.70;99.90
22112;DHT22;11222;50.872;4.312;2022-07-23T05:50:45;17.80;99.90
22112;DHT22;11222;50.872;4.312;2022-07-23T05:53:10;18.00;99.90
22112;DHT22;11222;50.872;4.312;2022-07-23T05:55:36;18.10;99.90
22112;DHT22;11222;50.872;4.312;2022-07-23T05:58:02;18.30;99.90
22112;DHT22;11222;50.872;4.312;2022-07-23T06:00:28;18.60;99.90
22112;DHT22;11222;50.872;4.312;2022-07-23T06:02:54;18.60;99.90
22112;DHT22;11222;50.872;4.312;2022-07-23T06:05:20;18.80;99.90
22112;DHT22;11222;50.872;4.312;2022-07-23T06:07:45;18.90;99.90
22112;DHT22;11222;50.872;4.312;2022-07-23T06:10:11;19.00;99.90
22112;DHT22;11222;50.872;4.312;2022-07-23T06:12:37;19.10;99.90
22112;DHT22;11222;50.872;4.312;2022-07-23T06:15:04;18.90;99.90
22112;DHT22;11222;50.872;4.312;2022-07-23T06:17:30;18.90;99.90
22112;DHT22;11222;50.872;4.312;2022-07-23T06:19:56;18.60;99.90
22112;DHT22;11222;50.872;4.312;2022-07-23T06:22:22;18.70;99.90
22112;DHT22;11222;50.872;4.312;2022-07-23T06:24:48;18.80;99.90
22112;DHT22;11222;50.872;4.312;2022-07-23T06:27:14;18.90;99.90
22112;DHT22;11222;50.872;4.312;2022-07-23T06:29:40;18.90;99.90
22112;DHT22;11222;50.872;4.312;2022-07-23T06:32:06;18.70;99.90
22112;DHT22;11222;50.872;4.312;2022-07-23T06:34:32;18.80;99.90
22112;DHT22;11222;50.872;4.312;2022-07-23T06:36:59;19.00;99.90
22112;DHT22;11222;50.872;4.312;2022-07-23T06:39:24;19.10;99.90
22112;DHT22;11222;50.872;4.312;2022-07-23T06:41:50;19.40;99.90
22112;DHT22;11222;50.872;4.312;2022-07-23T06:44:16;19.50;99.90
22112;DHT22;11222;50.872;4.312;2022-07-23T06:46:42;19.50;99.90
22112;DHT22;11222;50.872;4.312;2022-07-23T06:49:07;19.60;99.90
22112;DHT22;11222;50.872;4.312;2022-07-23T06:51:33;19.70;99.90
22112;DHT22;11222;50.872;4.312;2022-07-23T06:53:59;19.80;99.90
22112;DHT22;11222;50.872;4.312;2022-07-23T06:56:25;19.80;99.90
22112;DHT22;11222;50.872;4.312;2022-07-23T06:58:51;19.70;99.90
22112;DHT22;11222;50.872;4.312;2022-07-23T07:01:16;19.70;99.90
22112;DHT22;11222;50.872;4.312;2022-07-23T07:03:42;19.70;99.90
22112;DHT22;11222;50.872;4.312;2022-07-23T07:06:08;19.70;99.90
22112;DHT22;11222;50.872;4.312;2022-07-23T07:08:34;19.70;99.90
22112;DHT22;11222;50.872;4.312;2022-07-23T07:11:00;19.60;99.90
22112;DHT22;11222;50.872;4.312;2022-07-23T07:13:26;19.40;99.90
22112;DHT22;11222;50.872;4.312;2022-07-23T07:15:51;19.30;99.90
22112;DHT22;11222;50.872;4.312;2022-07-23T07:18:17;19.50;99.90
22112;DHT22;11222;50.872;4.312;2022-07-23T07:20:43;19.90;99.90
22112;DHT22;11222;50.872;4.312;2022-07-23T07:23:08;20.30;99.90
22112;DHT22;11222;50.872;4.312;2022-07-23T07:25:34;20.30;99.90
22112;DHT22;11222;50.872;4.312;2022-07-23T07:28:00;20.60;99.90
22112;DHT22;11222;50.872;4.312;2022-07-23T07:30:26;20.90;99.90
22112;DHT22;11222;50.872;4.312;2022-07-23T07:32:52;21.30;99.90
22112;DHT22;11222;50.872;4.312;2022-07-23T07:35:17;21.60;99.90
22112;DHT22;11222;50.872;4.312;2022-07-23T07:37:43;21.40;99.90
22112;DHT22;11222;50.872;4.312;2022-07-23T07:40:09;21.30;99.90
22112;DHT22;11222;50.872;4.312;2022-07-23T07:42:43;21.30;99.90
22112;DHT22;11222;50.872;4.312;2022-07-23T07:45:09;21.80;99.90
22112;DHT22;11222;50.872;4.312;2022-07-23T07:47:35;23.70;99.90
22112;DHT22;11222;50.872;4.312;2022-07-23T07:50:01;25.10;99.90
22112;DHT22;11222;50.872;4.312;2022-07-23T07:52:26;25.90;99.90
22112;DHT22;11222;50.872;4.312;2022-07-23T07:54:52;26.40;99.90
22112;DHT22;11222;50.872;4.312;2022-07-23T07:57:17;27.30;99.90
22112;DHT22;11222;50.872;4.312;2022-07-23T07:59:43;26.50;99.90
22112;DHT22;11222;50.872;4.312;2022-07-23T08:02:09;28.90;99.90
22112;DHT22;11222;50.872;4.312;2022-07-23T08:04:34;28.50;99.90
22112;DHT22;11222;50.872;4.312;2022-07-23T08:07:00;27.80;99.90
22112;DHT22;11222;50.872;4.312;2022-07-23T08:09:26;30.20;99.90
22112;DHT22;11222;50.872;4.312;2022-07-23T08:11:51;31.30;99.90
22112;DHT22;11222;50.872;4.312;2022-07-23T08:14:18;30.90;99.90
22112;DHT22;11222;50.872;4.312;2022-07-23T08:16:43;30.50;99.90
22112;DHT22;11222;50.872;4.312;2022-07-23T08:19:09;30.40;99.90
22112;DHT22;11222;50.872;4.312;2022-07-23T08:21:35;31.40;99.90
22112;DHT22;11222;50.872;4.312;2022-07-23T08:24:03;33.10;99.90
22112;DHT22;11222;50.872;4.312;2022-07-23T08:26:28;33.40;99.90
22112;DHT22;11222;50.872;4.312;2022-07-23T08:28:54;33.60;99.90
22112;DHT22;11222;50.872;4.312;2022-07-23T08:31:20;33.20;99.90
22112;DHT22;11222;50.872;4.312;2022-07-23T08:33:45;32.50;99.90
22112;DHT22;11222;50.872;4.312;2022-07-23T08:36:11;32.90;99.90
22112;DHT22;11222;50.872;4.312;2022-07-23T08:38:39;32.50;99.90
22112;DHT22;11222;50.872;4.312;2022-07-23T08:41:09;32.10;99.90
22112;DHT22;11222;50.872;4.312;2022-07-23T08:43:35;33.10;99.90
22112;DHT22;11222;50.872;4.312;2022-07-23T08:46:02;32.60;99.90
22112;DHT22;11222;50.872;4.312;2022-07-23T08:48:33;32.20;99.90
22112;DHT22;11222;50.872;4.312;2022-07-23T08:51:01;32.90;99.90
22112;DHT22;11222;50.872;4.312;2022-07-23T08:53:28;33.40;99.70
22112;DHT22;11222;50.872;4.312;2022-07-23T08:55:56;34.60;97.90
22112;DHT22;11222;50.872;4.312;2022-07-23T08:58:23;33.40;98.00
22112;DHT22;11222;50.872;4.312;2022-07-23T09:00:49;33.20;98.20
22112;DHT22;11222;50.872;4.312;2022-07-23T09:03:20;32.40;98.60
22112;DHT22;11222;50.872;4.312;2022-07-23T09:05:46;33.40;97.30
22112;DHT22;11222;50.872;4.312;2022-07-23T09:08:13;31.30;99.30
22112;DHT22;11222;50.872;4.312;2022-07-23T09:10:59;30.20;99.90
22112;DHT22;11222;50.872;4.312;2022-07-23T09:13:29;31.10;99.90
22112;DHT22;11222;50.872;4.312;2022-07-23T09:16:04;33.10;97.60
22112;DHT22;11222;50.872;4.312;2022-07-23T09:21:39;31.60;97.40
22112;DHT22;11222;50.872;4.312;2022-07-23T09:24:07;33.40;96.30
22112;DHT22;11222;50.872;4.312;2022-07-23T09:26:39;34.20;95.40
22112;DHT22;11222;50.872;4.312;2022-07-23T09:31:57;35.40;92.80
22112;DHT22;11222;50.872;4.312;2022-07-23T09:34:29;36.00;90.70
22112;DHT22;11222;50.872;4.312;2022-07-23T09:36:58;36.30;88.20
22112;DHT22;11222;50.872;4.312;2022-07-23T09:39:33;33.90;91.10
22112;DHT22;11222;50.872;4.312;2022-07-23T09:42:24;32.90;91.20
22112;DHT22;11222;50.872;4.312;2022-07-23T09:44:53;33.90;91.10
22112;DHT22;11222;50.872;4.312;2022-07-23T09:47:20;35.10;89.60
22112;DHT22;11222;50.872;4.312;2022-07-23T09:50:07;36.10;88.70
22112;DHT22;11222;50.872;4.312;2022-07-23T09:55:08;34.70;86.20
22112;DHT22;11222;50.872;4.312;2022-07-23T09:57:35;34.60;87.10
22112;DHT22;11222;50.872;4.312;2022-07-23T10:00:05;35.20;86.60
22112;DHT22;11222;50.872;4.312;2022-07-23T10:02:33;35.10;85.90
22112;DHT22;11222;50.872;4.312;2022-07-23T10:05:01;34.70;85.60
22112;DHT22;11222;50.872;4.312;2022-07-23T10:07:27;34.70;85.70
22112;DHT22;11222;50.872;4.312;2022-07-23T10:09:57;34.60;82.90
22112;DHT22;11222;50.872;4.312;2022-07-23T10:12:24;32.90;85.10
22112;DHT22;11222;50.872;4.312;2022-07-23T10:15:09;33.90;83.10
22112;DHT22;11222;50.872;4.312;2022-07-23T10:17:35;34.80;81.50
22112;DHT22;11222;50.872;4.312;2022-07-23T10:20:02;34.60;81.50
22112;DHT22;11222;50.872;4.312;2022-07-23T10:22:35;35.30;80.80
22112;DHT22;11222;50.872;4.312;2022-07-23T10:33:41;33.90;81.40
22112;DHT22;11222;50.872;4.312;2022-07-23T10:36:20;35.10;78.80
22112;DHT22;11222;50.872;4.312;2022-07-23T10:39:41;35.30;79.80
22112;DHT22;11222;50.872;4.312;2022-07-23T10:44:45;34.80;78.40
22112;DHT22;11222;50.872;4.312;2022-07-23T10:47:11;34.60;77.80
22112;DHT22;11222;50.872;4.312;2022-07-23T10:58:03;35.10;78.60
22112;DHT22;11222;50.872;4.312;2022-07-23T11:00:31;34.80;77.30
22112;DHT22;11222;50.872;4.312;2022-07-23T11:03:04;34.30;77.90
22112;DHT22;11222;50.872;4.312;2022-07-23T11:05:43;34.10;77.70
22112;DHT22;11222;50.872;4.312;2022-07-23T11:08:10;35.40;76.60
22112;DHT22;11222;50.872;4.312;2022-07-23T11:10:50;36.10;75.20
22112;DHT22;11222;50.872;4.312;2022-07-23T11:18:57;35.40;74.40
22112;DHT22;11222;50.872;4.312;2022-07-23T11:23:59;38.30;70.10
22112;DHT22;11222;50.872;4.312;2022-07-23T11:34:46;38.90;67.50
22112;DHT22;11222;50.872;4.312;2022-07-23T11:39:58;38.80;65.90
22112;DHT22;11222;50.872;4.312;2022-07-23T11:42:24;35.40;72.70
22112;DHT22;11222;50.872;4.312;2022-07-23T11:44:50;36.60;70.90
22112;DHT22;11222;50.872;4.312;2022-07-23T11:47:25;37.80;68.30
22112;DHT22;11222;50.872;4.312;2022-07-23T11:49:59;36.60;67.80
22112;DHT22;11222;50.872;4.312;2022-07-23T11:52:26;36.00;68.90
22112;DHT22;11222;50.872;4.312;2022-07-23T11:54:57;35.90;70.90
22112;DHT22;11222;50.872;4.312;2022-07-23T11:57:30;35.90;69.90
22112;DHT22;11222;50.872;4.312;2022-07-23T12:00:00;35.60;71.20
22112;DHT22;11222;50.872;4.312;2022-07-23T12:02:26;35.00;71.20
22112;DHT22;11222;50.872;4.312;2022-07-23T12:04:53;35.60;70.00
22112;DHT22;11222;50.872;4.312;2022-07-23T12:07:31;34.90;71.20
22112;DHT22;11222;50.872;4.312;2022-07-23T12:10:08;35.10;71.90
22112;DHT22;11222;50.872;4.312;2022-07-23T12:12:40;34.70;72.40
22112;DHT22;11222;50.872;4.312;2022-07-23T12:15:07;33.90;73.50
22112;DHT22;11222;50.872;4.312;2022-07-23T12:17:36;32.40;76.80
22112;DHT22;11222;50.872;4.312;2022-07-23T12:20:04;31.40;78.70
22112;DHT22;11222;50.872;4.312;2022-07-23T12:22:40;30.30;82.30
22112;DHT22;11222;50.872;4.312;2022-07-23T12:25:11;29.80;82.90
22112;DHT22;11222;50.872;4.312;2022-07-23T12:27:38;29.70;84.50
22112;DHT22;11222;50.872;4.312;2022-07-23T12:30:21;29.50;84.70
22112;DHT22;11222;50.872;4.312;2022-07-23T12:32:49;28.50;87.00
22112;DHT22;11222;50.872;4.312;2022-07-23T12:35:15;27.90;89.80
22112;DHT22;11222;50.872;4.312;2022-07-23T12:37:43;28.30;90.30
22112;DHT22;11222;50.872;4.312;2022-07-23T12:40:32;28.40;90.10
22112;DHT22;11222;50.872;4.312;2022-07-23T12:43:02;28.60;90.10
22112;DHT22;11222;50.872;4.312;2022-07-23T12:45:51;28.60;89.90
22112;DHT22;11222;50.872;4.312;2022-07-23T12:48:26;28.70;90.10
22112;DHT22;11222;50.872;4.312;2022-07-23T12:55:48;28.70;90.20
22112;DHT22;11222;50.872;4.312;2022-07-23T12:58:18;28.60;90.20
22112;DHT22;11222;50.872;4.312;2022-07-23T13:00:56;28.50;91.20
22112;DHT22;11222;50.872;4.312;2022-07-23T13:03:43;28.50;91.10
22112;DHT22;11222;50.872;4.312;2022-07-23T13:06:10;28.50;91.40
22112;DHT22;11222;50.872;4.312;2022-07-23T13:08:39;28.60;91.30
22112;DHT22;11222;50.872;4.312;2022-07-23T13:11:06;28.50;91.40
22112;DHT22;11222;50.872;4.312;2022-07-23T13:13:34;28.60;91.40
22112;DHT22;11222;50.872;4.312;2022-07-23T13:16:01;28.40;91.40
22112;DHT22;11222;50.872;4.312;2022-07-23T13:18:28;28.30;91.70
22112;DHT22;11222;50.872;4.312;2022-07-23T13:20:54;28.40;92.10
22112;DHT22;11222;50.872;4.312;2022-07-23T13:23:20;28.50;92.60
22112;DHT22;11222;50.872;4.312;2022-07-23T13:25:47;28.80;92.50
22112;DHT22;11222;50.872;4.312;2022-07-23T13:28:14;29.10;92.70
22112;DHT22;11222;50.872;4.312;2022-07-23T13:30:41;29.40;92.40
22112;DHT22;11222;50.872;4.312;2022-07-23T13:33:07;28.80;92.60
22112;DHT22;11222;50.872;4.312;2022-07-23T13:35:34;28.60;92.90
22112;DHT22;11222;50.872;4.312;2022-07-23T13:38:01;28.40;93.20
22112;DHT22;11222;50.872;4.312;2022-07-23T13:40:27;28.60;93.30
22112;DHT22;11222;50.872;4.312;2022-07-23T13:42:53;28.60;93.20
22112;DHT22;11222;50.872;4.312;2022-07-23T13:45:18;28.80;93.20
22112;DHT22;11222;50.872;4.312;2022-07-23T13:47:44;28.90;92.40
22112;DHT22;11222;50.872;4.312;2022-07-23T13:50:10;28.90;92.60
22112;DHT22;11222;50.872;4.312;2022-07-23T13:52:36;29.10;92.50
22112;DHT22;11222;50.872;4.312;2022-07-23T13:55:05;29.10;93.00
22112;DHT22;11222;50.872;4.312;2022-07-23T13:57:32;29.00;92.80
22112;DHT22;11222;50.872;4.312;2022-07-23T13:59:58;29.10;92.80
22112;DHT22;11222;50.872;4.312;2022-07-23T14:02:24;29.00;92.70
22112;DHT22;11222;50.872;4.312;2022-07-23T14:04:50;29.00;93.30
22112;DHT22;11222;50.872;4.312;2022-07-23T14:07:16;29.00;93.30
22112;DHT22;11222;50.872;4.312;2022-07-23T14:09:42;28.90;93.30
22112;DHT22;11222;50.872;4.312;2022-07-23T14:12:08;28.80;93.20
22112;DHT22;11222;50.872;4.312;2022-07-23T14:14:34;28.50;93.70
22112;DHT22;11222;50.872;4.312;2022-07-23T14:17:00;28.30;93.80
22112;DHT22;11222;50.872;4.312;2022-07-23T14:19:26;28.10;94.40
22112;DHT22;11222;50.872;4.312;2022-07-23T14:21:51;28.10;94.10
22112;DHT22;11222;50.872;4.312;2022-07-23T14:24:17;28.20;94.40
22112;DHT22;11222;50.872;4.312;2022-07-23T14:26:43;28.40;93.80
22112;DHT22;11222;50.872;4.312;2022-07-23T14:29:09;28.60;94.10
22112;DHT22;11222;50.872;4.312;2022-07-23T14:31:35;28.40;93.60
22112;DHT22;11222;50.872;4.312;2022-07-23T14:34:01;28.30;94.10
22112;DHT22;11222;50.872;4.312;2022-07-23T14:36:27;28.30;95.00
22112;DHT22;11222;50.872;4.312;2022-07-23T14:38:52;28.20;94.80
22112;DHT22;11222;50.872;4.312;2022-07-23T14:41:18;28.30;94.90
22112;DHT22;11222;50.872;4.312;2022-07-23T14:43:44;28.50;94.30
22112;DHT22;11222;50.872;4.312;2022-07-23T14:46:11;28.80;93.90
22112;DHT22;11222;50.872;4.312;2022-07-23T14:48:37;28.60;93.80
22112;DHT22;11222;50.872;4.312;2022-07-23T14:51:03;28.80;93.40
22112;DHT22;11222;50.872;4.312;2022-07-23T14:53:29;28.60;93.50
22112;DHT22;11222;50.872;4.312;2022-07-23T14:55:55;28.40;94.00
22112;DHT22;11222;50.872;4.312;2022-07-23T14:58:23;28.60;94.00
22112;DHT22;11222;50.872;4.312;2022-07-23T15:00:49;28.60;94.60
22112;DHT22;11222;50.872;4.312;2022-07-23T15:03:15;28.70;94.10
22112;DHT22;11222;50.872;4.312;2022-07-23T15:05:40;28.80;94.50
22112;DHT22;11222;50.872;4.312;2022-07-23T15:08:06;28.80;94.10
22112;DHT22;11222;50.872;4.312;2022-07-23T15:10:32;28.70;93.30
22112;DHT22;11222;50.872;4.312;2022-07-23T15:12:58;28.70;94.00
22112;DHT22;11222;50.872;4.312;2022-07-23T15:15:23;28.80;93.60
22112;DHT22;11222;50.872;4.312;2022-07-23T15:17:49;28.70;93.70
22112;DHT22;11222;50.872;4.312;2022-07-23T15:20:15;28.80;94.10
22112;DHT22;11222;50.872;4.312;2022-07-23T15:22:41;28.70;93.50
22112;DHT22;11222;50.872;4.312;2022-07-23T15:25:07;28.80;94.10
22112;DHT22;11222;50.872;4.312;2022-07-23T15:27:33;28.80;93.50
22112;DHT22;11222;50.872;4.312;2022-07-23T15:29:59;28.90;93.20
22112;DHT22;11222;50.872;4.312;2022-07-23T15:32:25;28.90;93.40
22112;DHT22;11222;50.872;4.312;2022-07-23T15:34:53;28.90;94.30
22112;DHT22;11222;50.872;4.312;2022-07-23T15:37:19;28.80;94.00
22112;DHT22;11222;50.872;4.312;2022-07-23T15:39:44;28.90;94.10
22112;DHT22;11222;50.872;4.312;2022-07-23T15:42:10;29.00;94.30
22112;DHT22;11222;50.872;4.312;2022-07-23T15:44:36;29.00;93.70
22112;DHT22;11222;50.872;4.312;2022-07-23T15:47:02;28.80;93.70
22112;DHT22;11222;50.872;4.312;2022-07-23T15:49:28;28.80;94.10
22112;DHT22;11222;50.872;4.312;2022-07-23T15:51:54;28.60;94.30
22112;DHT22;11222;50.872;4.312;2022-07-23T15:54:21;28.60;94.60
22112;DHT22;11222;50.872;4.312;2022-07-23T15:56:47;28.50;94.70
22112;DHT22;11222;50.872;4.312;2022-07-23T15:59:12;28.30;94.50
22112;DHT22;11222;50.872;4.312;2022-07-23T16:01:38;28.30;95.00
22112;DHT22;11222;50.872;4.312;2022-07-23T16:04:04;28.20;95.40
22112;DHT22;11222;50.872;4.312;2022-07-23T16:06:32;28.20;95.30
22112;DHT22;11222;50.872;4.312;2022-07-23T16:08:58;28.30;95.50
22112;DHT22;11222;50.872;4.312;2022-07-23T16:11:25;28.20;94.90
22112;DHT22;11222;50.872;4.312;2022-07-23T16:13:51;28.30;95.90
22112;DHT22;11222;50.872;4.312;2022-07-23T16:16:17;28.40;95.50
22112;DHT22;11222;50.872;4.312;2022-07-23T16:18:42;28.50;95.10
22112;DHT22;11222;50.872;4.312;2022-07-23T16:21:09;28.60;95.00
22112;DHT22;11222;50.872;4.312;2022-07-23T16:23:34;28.40;94.90